sensor_id;sensor_type;location;lat;lon;timestamp;P1;durP1;ratioP1;P2;durP2;ratioP2
51754;SDS011;37829;50.370;30.428;2022-12-10T00:00:54;183.63;;;69.82;;
51754;SDS011;37829;50.370;30.428;2022-12-10T00:01:55;158.73;;;56.72;;
51754;SDS011;37829;50.370;30.428;2022-12-10T00:02:56;128.38;;;48.17;;
51754;SDS011;37829;50.370;30.428;2022-12-10T00:03:58;178.60;;;62.80;;
51754;SDS011;37829;50.370;30.428;2022-12-10T00:04:59;115.80;;;43.85;;
51754;SDS011;37829;50.370;30.428;2022-12-10T00:06:00;134.07;;;47.33;;
51754;SDS011;37829;50.370;30.428;2022-12-10T00:07:02;149.80;;;52.05;;
51754;SDS011;37829;50.370;30.428;2022-12-10T00:08:03;208.65;;;72.80;;
51754;SDS011;37829;50.370;30.428;2022-12-10T00:09:06;267.27;;;84.60;;
51754;SDS011;37829;50.370;30.428;2022-12-10T00:10:07;134.10;;;50.85;;
51754;SDS011;37829;50.370;30.428;2022-12-10T00:11:12;140.32;;;50.90;;
51754;SDS011;37829;50.370;30.428;2022-12-10T00:12:13;155.52;;;51.72;;
51754;SDS011;37829;50.370;30.428;2022-12-10T00:13:15;206.48;;;69.38;;
51754;SDS011;37829;50.370;30.428;2022-12-10T00:14:15;268.80;;;86.60;;
51754;SDS011;37829;50.370;30.428;2022-12-10T00:15:17;170.98;;;57.38;;
51754;SDS011;37829;50.370;30.428;2022-12-10T00:16:18;135.88;;;50.88;;
51754;SDS011;37829;50.370;30.428;2022-12-10T00:18:20;116.57;;;43.60;;
51754;SDS011;37829;50.370;30.428;2022-12-10T00:19:22;118.93;;;40.28;;
51754;SDS011;37829;50.370;30.428;2022-12-10T00:20:23;139.35;;;46.88;;
51754;SDS011;37829;50.370;30.428;2022-12-10T00:21:25;114.20;;;43.28;;
51754;SDS011;37829;50.370;30.428;2022-12-10T00:22:27;130.15;;;46.92;;
51754;SDS011;37829;50.370;30.428;2022-12-10T00:23:28;128.07;;;46.80;;
51754;SDS011;37829;50.370;30.428;2022-12-10T00:24:30;147.13;;;49.03;;
51754;SDS011;37829;50.370;30.428;2022-12-10T00:25:31;119.50;;;45.88;;
51754;SDS011;37829;50.370;30.428;2022-12-10T00:26:33;130.63;;;46.90;;
51754;SDS011;37829;50.370;30.428;2022-12-10T00:27:35;132.35;;;46.80;;
51754;SDS011;37829;50.370;30.428;2022-12-10T00:28:36;115.93;;;43.88;;
51754;SDS011;37829;50.370;30.428;2022-12-10T00:29:37;130.20;;;45.67;;
51754;SDS011;37829;50.370;30.428;2022-12-10T00:30:38;122.35;;;45.63;;
51754;SDS011;37829;50.370;30.428;2022-12-10T00:31:39;116.93;;;43.55;;
51754;SDS011;37829;50.370;30.428;2022-12-10T00:32:40;130.55;;;45.72;;
51754;SDS011;37829;50.370;30.428;2022-12-10T00:33:42;115.93;;;42.87;;
51754;SDS011;37829;50.370;30.428;2022-12-10T00:34:44;116.75;;;43.42;;
51754;SDS011;37829;50.370;30.428;2022-12-10T00:35:45;126.45;;;43.38;;
51754;SDS011;37829;50.370;30.428;2022-12-10T00:36:46;127.93;;;42.57;;
51754;SDS011;37829;50.370;30.428;2022-12-10T00:37:48;138.10;;;45.50;;
51754;SDS011;37829;50.370;30.428;2022-12-10T00:38:49;100.67;;;36.47;;
51754;SDS011;37829;50.370;30.428;2022-12-10T00:39:51;118.60;;;40.60;;
51754;SDS011;37829;50.370;30.428;2022-12-10T00:40:51;119.43;;;42.22;;
51754;SDS011;37829;50.370;30.428;2022-12-10T00:41:53;106.00;;;38.13;;
51754;SDS011;37829;50.370;30.428;2022-12-10T00:42:54;105.53;;;38.30;;
51754;SDS011;37829;50.370;30.428;2022-12-10T00:43:55;114.03;;;38.77;;
51754;SDS011;37829;50.370;30.428;2022-12-10T00:44:56;101.63;;;36.00;;
51754;SDS011;37829;50.370;30.428;2022-12-10T00:45:57;90.65;;;31.98;;
51754;SDS011;37829;50.370;30.428;2022-12-10T00:46:58;138.95;;;44.97;;
51754;SDS011;37829;50.370;30.428;2022-12-10T00:47:59;109.00;;;39.08;;
51754;SDS011;37829;50.370;30.428;2022-12-10T00:49:00;105.55;;;35.40;;
51754;SDS011;37829;50.370;30.428;2022-12-10T00:50:02;97.15;;;35.33;;
51754;SDS011;37829;50.370;30.428;2022-12-10T00:51:04;135.20;;;46.45;;
51754;SDS011;37829;50.370;30.428;2022-12-10T00:52:05;104.50;;;38.60;;
51754;SDS011;37829;50.370;30.428;2022-12-10T00:53:07;128.07;;;50.22;;
51754;SDS011;37829;50.370;30.428;2022-12-10T00:54:08;100.90;;;36.35;;
51754;SDS011;37829;50.370;30.428;2022-12-10T00:55:10;111.15;;;40.25;;
51754;SDS011;37829;50.370;30.428;2022-12-10T00:56:11;98.37;;;35.63;;
51754;SDS011;37829;50.370;30.428;2022-12-10T00:57:12;81.90;;;32.63;;
51754;SDS011;37829;50.370;30.428;2022-12-10T00:58:13;132.32;;;38.88;;
51754;SDS011;37829;50.370;30.428;2022-12-10T00:59:14;86.10;;;33.33;;
51754;SDS011;37829;50.370;30.428;2022-12-10T01:00:15;81.65;;;30.98;;
51754;SDS011;37829;50.370;30.428;2022-12-10T01:01:18;95.78;;;33.65;;
51754;SDS011;37829;50.370;30.428;2022-12-10T01:02:19;100.18;;;32.33;;
51754;SDS011;37829;50.370;30.428;2022-12-10T01:04:22;85.68;;;32.92;;
51754;SDS011;37829;50.370;30.428;2022-12-10T01:05:24;109.10;;;34.55;;
51754;SDS011;37829;50.370;30.428;2022-12-10T01:06:26;116.72;;;38.42;;
51754;SDS011;37829;50.370;30.428;2022-12-10T01:07:27;79.70;;;29.73;;
51754;SDS011;37829;50.370;30.428;2022-12-10T01:08:28;120.90;;;34.50;;
51754;SDS011;37829;50.370;30.428;2022-12-10T01:09:30;101.45;;;34.13;;
51754;SDS011;37829;50.370;30.428;2022-12-10T01:10:31;88.93;;;32.95;;
51754;SDS011;37829;50.370;30.428;2022-12-10T01:11:33;87.28;;;30.23;;
51754;SDS011;37829;50.370;30.428;2022-12-10T01:12:34;89.53;;;30.75;;
51754;SDS011;37829;50.370;30.428;2022-12-10T01:13:35;94.17;;;31.63;;
51754;SDS011;37829;50.370;30.428;2022-12-10T01:14:36;76.18;;;30.23;;
51754;SDS011;37829;50.370;30.428;2022-12-10T01:15:38;94.07;;;31.60;;
51754;SDS011;37829;50.370;30.428;2022-12-10T01:16:40;112.65;;;34.85;;
51754;SDS011;37829;50.370;30.428;2022-12-10T01:17:41;81.28;;;29.63;;
51754;SDS011;37829;50.370;30.428;2022-12-10T01:18:42;96.38;;;31.95;;
51754;SDS011;37829;50.370;30.428;2022-12-10T01:19:43;96.78;;;30.27;;
51754;SDS011;37829;50.370;30.428;2022-12-10T01:20:44;175.38;;;40.53;;
51754;SDS011;37829;50.370;30.428;2022-12-10T01:21:45;164.50;;;42.65;;
51754;SDS011;37829;50.370;30.428;2022-12-10T01:22:50;161.55;;;42.90;;
51754;SDS011;37829;50.370;30.428;2022-12-10T01:23:51;134.53;;;32.97;;
51754;SDS011;37829;50.370;30.428;2022-12-10T01:24:52;100.05;;;30.92;;
51754;SDS011;37829;50.370;30.428;2022-12-10T01:25:53;138.18;;;32.17;;
51754;SDS011;37829;50.370;30.428;2022-12-10T01:26:54;99.55;;;28.20;;
51754;SDS011;37829;50.370;30.428;2022-12-10T01:27:56;119.38;;;26.85;;
51754;SDS011;37829;50.370;30.428;2022-12-10T01:28:57;137.27;;;33.85;;
51754;SDS011;37829;50.370;30.428;2022-12-10T01:29:58;189.07;;;35.22;;
51754;SDS011;37829;50.370;30.428;2022-12-10T01:31:00;153.43;;;34.20;;
51754;SDS011;37829;50.370;30.428;2022-12-10T01:32:02;125.45;;;35.47;;
51754;SDS011;37829;50.370;30.428;2022-12-10T01:33:03;106.28;;;30.83;;
51754;SDS011;37829;50.370;30.428;2022-12-10T01:34:05;133.15;;;32.75;;
51754;SDS011;37829;50.370;30.428;2022-12-10T01:35:07;122.22;;;32.75;;
51754;SDS011;37829;50.370;30.428;2022-12-10T01:36:09;145.43;;;32.90;;
51754;SDS011;37829;50.370;30.428;2022-12-10T01:37:11;125.57;;;31.13;;
51754;SDS011;37829;50.370;30.428;2022-12-10T01:38:12;91.88;;;24.90;;
51754;SDS011;37829;50.370;30.428;2022-12-10T01:39:14;199.07;;;33.03;;
51754;SDS011;37829;50.370;30.428;2022-12-10T01:40:15;242.90;;;38.42;;
51754;SDS011;37829;50.370;30.428;2022-12-10T01:41:17;251.93;;;39.58;;
51754;SDS011;37829;50.370;30.428;2022-12-10T01:42:18;173.73;;;36.90;;
51754;SDS011;37829;50.370;30.428;2022-12-10T01:43:19;184.07;;;34.97;;
51754;SDS011;37829;50.370;30.428;2022-12-10T01:45:40;170.93;;;32.35;;
51754;SDS011;37829;50.370;30.428;2022-12-10T01:46:41;228.48;;;39.13;;
51754;SDS011;37829;50.370;30.428;2022-12-10T01:47:43;101.53;;;23.35;;
51754;SDS011;37829;50.370;30.428;2022-12-10T01:48:44;167.57;;;32.95;;
51754;SDS011;37829;50.370;30.428;2022-12-10T01:49:45;263.65;;;37.42;;
51754;SDS011;37829;50.370;30.428;2022-12-10T01:50:46;125.05;;;29.58;;
51754;SDS011;37829;50.370;30.428;2022-12-10T01:51:49;121.15;;;27.75;;
51754;SDS011;37829;50.370;30.428;2022-12-10T01:52:50;185.60;;;32.80;;
51754;SDS011;37829;50.370;30.428;2022-12-10T01:53:51;133.20;;;31.05;;
51754;SDS011;37829;50.370;30.428;2022-12-10T01:54:52;225.00;;;37.63;;
51754;SDS011;37829;50.370;30.428;2022-12-10T01:55:54;121.82;;;28.95;;
51754;SDS011;37829;50.370;30.428;2022-12-10T01:56:57;99.00;;;28.50;;
51754;SDS011;37829;50.370;30.428;2022-12-10T01:57:59;192.82;;;32.85;;
51754;SDS011;37829;50.370;30.428;2022-12-10T01:59:00;192.20;;;32.03;;
51754;SDS011;37829;50.370;30.428;2022-12-10T02:00:04;125.07;;;28.10;;
51754;SDS011;37829;50.370;30.428;2022-12-10T02:01:08;199.70;;;34.17;;
51754;SDS011;37829;50.370;30.428;2022-12-10T02:02:11;241.07;;;38.45;;
51754;SDS011;37829;50.370;30.428;2022-12-10T02:03:16;145.68;;;31.02;;
51754;SDS011;37829;50.370;30.428;2022-12-10T02:04:21;225.13;;;34.75;;
51754;SDS011;37829;50.370;30.428;2022-12-10T02:05:23;200.25;;;29.67;;
51754;SDS011;37829;50.370;30.428;2022-12-10T02:06:29;93.10;;;26.75;;
51754;SDS011;37829;50.370;30.428;2022-12-10T02:07:35;175.13;;;34.22;;
51754;SDS011;37829;50.370;30.428;2022-12-10T02:08:40;170.18;;;29.48;;
51754;SDS011;37829;50.370;30.428;2022-12-10T02:09:43;285.85;;;35.67;;
51754;SDS011;37829;50.370;30.428;2022-12-10T02:10:47;323.60;;;39.05;;
51754;SDS011;37829;50.370;30.428;2022-12-10T02:11:52;321.70;;;40.33;;
51754;SDS011;37829;50.370;30.428;2022-12-10T02:12:56;225.02;;;36.92;;
51754;SDS011;37829;50.370;30.428;2022-12-10T02:14:00;243.32;;;34.60;;
51754;SDS011;37829;50.370;30.428;2022-12-10T02:15:04;279.85;;;36.60;;
51754;SDS011;37829;50.370;30.428;2022-12-10T02:16:08;215.77;;;30.15;;
51754;SDS011;37829;50.370;30.428;2022-12-10T02:17:12;231.48;;;36.38;;
51754;SDS011;37829;50.370;30.428;2022-12-10T02:18:14;206.57;;;31.95;;
51754;SDS011;37829;50.370;30.428;2022-12-10T02:19:20;266.42;;;33.35;;
51754;SDS011;37829;50.370;30.428;2022-12-10T02:20:22;253.35;;;32.67;;
51754;SDS011;37829;50.370;30.428;2022-12-10T02:21:26;165.45;;;26.77;;
51754;SDS011;37829;50.370;30.428;2022-12-10T02:22:30;215.70;;;34.30;;
51754;SDS011;37829;50.370;30.428;2022-12-10T02:23:34;230.85;;;33.42;;
51754;SDS011;37829;50.370;30.428;2022-12-10T02:24:36;156.60;;;22.65;;
51754;SDS011;37829;50.370;30.428;2022-12-10T02:25:48;228.60;;;30.80;;
51754;SDS011;37829;50.370;30.428;2022-12-10T02:26:52;204.75;;;30.52;;
51754;SDS011;37829;50.370;30.428;2022-12-10T02:27:58;172.90;;;27.90;;
51754;SDS011;37829;50.370;30.428;2022-12-10T02:29:06;221.90;;;30.02;;
51754;SDS011;37829;50.370;30.428;2022-12-10T02:30:08;226.77;;;31.10;;
51754;SDS011;37829;50.370;30.428;2022-12-10T02:31:10;177.80;;;25.85;;
51754;SDS011;37829;50.370;30.428;2022-12-10T02:32:12;343.90;;;37.28;;
51754;SDS011;37829;50.370;30.428;2022-12-10T02:33:14;106.72;;;21.67;;
51754;SDS011;37829;50.370;30.428;2022-12-10T02:34:17;226.48;;;28.33;;
51754;SDS011;37829;50.370;30.428;2022-12-10T02:35:19;190.70;;;27.98;;
51754;SDS011;37829;50.370;30.428;2022-12-10T02:36:21;208.05;;;29.70;;
51754;SDS011;37829;50.370;30.428;2022-12-10T02:37:24;115.60;;;24.30;;
51754;SDS011;37829;50.370;30.428;2022-12-10T02:38:28;282.35;;;32.58;;
51754;SDS011;37829;50.370;30.428;2022-12-10T02:39:31;173.07;;;27.05;;
51754;SDS011;37829;50.370;30.428;2022-12-10T02:40:34;190.95;;;28.67;;
51754;SDS011;37829;50.370;30.428;2022-12-10T02:41:37;199.77;;;31.13;;
51754;SDS011;37829;50.370;30.428;2022-12-10T02:42:39;239.80;;;30.88;;
51754;SDS011;37829;50.370;30.428;2022-12-10T02:43:42;180.68;;;29.00;;
51754;SDS011;37829;50.370;30.428;2022-12-10T02:44:45;222.32;;;30.38;;
51754;SDS011;37829;50.370;30.428;2022-12-10T02:45:47;239.38;;;29.63;;
51754;SDS011;37829;50.370;30.428;2022-12-10T02:46:49;162.15;;;27.95;;
51754;SDS011;37829;50.370;30.428;2022-12-10T02:48:52;97.88;;;21.13;;
51754;SDS011;37829;50.370;30.428;2022-12-10T02:49:53;162.60;;;27.77;;
51754;SDS011;37829;50.370;30.428;2022-12-10T02:50:56;150.43;;;26.50;;
51754;SDS011;37829;50.370;30.428;2022-12-10T02:51:57;200.40;;;27.33;;
51754;SDS011;37829;50.370;30.428;2022-12-10T02:53:00;189.65;;;27.02;;
51754;SDS011;37829;50.370;30.428;2022-12-10T02:54:01;297.00;;;32.53;;
51754;SDS011;37829;50.370;30.428;2022-12-10T02:55:03;96.63;;;23.30;;
51754;SDS011;37829;50.370;30.428;2022-12-10T02:56:08;149.45;;;26.27;;
51754;SDS011;37829;50.370;30.428;2022-12-10T02:57:15;135.45;;;23.27;;
51754;SDS011;37829;50.370;30.428;2022-12-10T02:58:20;97.65;;;22.60;;
51754;SDS011;37829;50.370;30.428;2022-12-10T02:59:24;159.90;;;24.05;;
51754;SDS011;37829;50.370;30.428;2022-12-10T03:00:28;224.40;;;28.35;;
51754;SDS011;37829;50.370;30.428;2022-12-10T03:01:34;104.60;;;22.35;;
51754;SDS011;37829;50.370;30.428;2022-12-10T03:02:40;160.77;;;23.67;;
51754;SDS011;37829;50.370;30.428;2022-12-10T03:03:45;84.13;;;20.95;;
51754;SDS011;37829;50.370;30.428;2022-12-10T03:04:51;105.38;;;21.77;;
51754;SDS011;37829;50.370;30.428;2022-12-10T03:05:54;171.02;;;26.15;;
51754;SDS011;37829;50.370;30.428;2022-12-10T03:06:57;128.43;;;20.85;;
51754;SDS011;37829;50.370;30.428;2022-12-10T03:08:02;185.70;;;24.75;;
51754;SDS011;37829;50.370;30.428;2022-12-10T03:09:04;182.45;;;24.48;;
51754;SDS011;37829;50.370;30.428;2022-12-10T03:10:07;130.48;;;23.73;;
51754;SDS011;37829;50.370;30.428;2022-12-10T03:11:12;204.20;;;27.10;;
51754;SDS011;37829;50.370;30.428;2022-12-10T03:12:15;212.23;;;27.52;;
51754;SDS011;37829;50.370;30.428;2022-12-10T03:13:18;185.48;;;23.52;;
51754;SDS011;37829;50.370;30.428;2022-12-10T03:14:21;232.20;;;27.73;;
51754;SDS011;37829;50.370;30.428;2022-12-10T03:15:23;160.82;;;23.13;;
51754;SDS011;37829;50.370;30.428;2022-12-10T03:16:26;137.80;;;21.65;;
51754;SDS011;37829;50.370;30.428;2022-12-10T03:17:29;202.85;;;23.65;;
51754;SDS011;37829;50.370;30.428;2022-12-10T03:18:34;251.10;;;27.13;;
51754;SDS011;37829;50.370;30.428;2022-12-10T03:19:36;162.23;;;23.38;;
51754;SDS011;37829;50.370;30.428;2022-12-10T03:20:39;360.08;;;32.33;;
51754;SDS011;37829;50.370;30.428;2022-12-10T03:21:41;185.23;;;24.73;;
51754;SDS011;37829;50.370;30.428;2022-12-10T03:22:43;159.85;;;22.38;;
51754;SDS011;37829;50.370;30.428;2022-12-10T03:23:45;210.70;;;25.48;;
51754;SDS011;37829;50.370;30.428;2022-12-10T03:24:46;328.60;;;32.28;;
51754;SDS011;37829;50.370;30.428;2022-12-10T03:25:48;196.75;;;24.83;;
51754;SDS011;37829;50.370;30.428;2022-12-10T03:26:49;269.92;;;30.77;;
51754;SDS011;37829;50.370;30.428;2022-12-10T03:27:51;233.77;;;28.00;;
51754;SDS011;37829;50.370;30.428;2022-12-10T03:28:55;170.90;;;24.15;;
51754;SDS011;37829;50.370;30.428;2022-12-10T03:29:59;106.80;;;19.90;;
51754;SDS011;37829;50.370;30.428;2022-12-10T03:31:00;195.48;;;26.27;;
51754;SDS011;37829;50.370;30.428;2022-12-10T03:32:02;309.23;;;31.35;;
51754;SDS011;37829;50.370;30.428;2022-12-10T03:33:04;178.00;;;23.92;;
51754;SDS011;37829;50.370;30.428;2022-12-10T03:34:05;185.68;;;24.88;;
51754;SDS011;37829;50.370;30.428;2022-12-10T03:35:07;161.10;;;22.00;;
51754;SDS011;37829;50.370;30.428;2022-12-10T03:36:08;253.43;;;26.42;;
51754;SDS011;37829;50.370;30.428;2022-12-10T03:37:09;186.80;;;22.15;;
51754;SDS011;37829;50.370;30.428;2022-12-10T03:38:10;236.68;;;25.80;;
51754;SDS011;37829;50.370;30.428;2022-12-10T03:39:12;283.23;;;28.88;;
51754;SDS011;37829;50.370;30.428;2022-12-10T06:46:25;33.56;;;19.36;;
51754;SDS011;37829;50.370;30.428;2022-12-10T06:47:27;32.45;;;18.73;;
51754;SDS011;37829;50.370;30.428;2022-12-10T06:48:28;40.23;;;20.90;;
51754;SDS011;37829;50.370;30.428;2022-12-10T06:49:29;32.20;;;17.55;;
51754;SDS011;37829;50.370;30.428;2022-12-10T06:50:30;37.15;;;19.55;;
51754;SDS011;37829;50.370;30.428;2022-12-10T06:51:31;32.55;;;17.33;;
51754;SDS011;37829;50.370;30.428;2022-12-10T06:52:32;32.03;;;16.55;;
51754;SDS011;37829;50.370;30.428;2022-12-10T06:53:34;28.38;;;16.63;;
51754;SDS011;37829;50.370;30.428;2022-12-10T06:54:36;29.00;;;17.27;;
51754;SDS011;37829;50.370;30.428;2022-12-10T06:55:36;29.35;;;17.27;;
51754;SDS011;37829;50.370;30.428;2022-12-10T06:56:38;30.02;;;16.77;;
51754;SDS011;37829;50.370;30.428;2022-12-10T06:57:39;28.38;;;17.00;;
51754;SDS011;37829;50.370;30.428;2022-12-10T06:58:41;33.72;;;17.42;;
51754;SDS011;37829;50.370;30.428;2022-12-10T06:59:42;31.92;;;16.58;;
51754;SDS011;37829;50.370;30.428;2022-12-10T07:00:43;29.10;;;15.88;;
51754;SDS011;37829;50.370;30.428;2022-12-10T07:01:45;31.30;;;17.80;;
51754;SDS011;37829;50.370;30.428;2022-12-10T07:02:47;30.25;;;16.75;;
51754;SDS011;37829;50.370;30.428;2022-12-10T07:03:48;32.83;;;17.00;;
51754;SDS011;37829;50.370;30.428;2022-12-10T07:04:49;30.60;;;17.42;;
51754;SDS011;37829;50.370;30.428;2022-12-10T07:05:50;31.33;;;16.95;;
51754;SDS011;37829;50.370;30.428;2022-12-10T07:06:51;29.17;;;16.95;;
51754;SDS011;37829;50.370;30.428;2022-12-10T07:07:52;28.30;;;16.90;;
51754;SDS011;37829;50.370;30.428;2022-12-10T07:08:54;31.70;;;17.27;;
51754;SDS011;37829;50.370;30.428;2022-12-10T07:09:54;28.77;;;15.98;;
51754;SDS011;37829;50.370;30.428;2022-12-10T07:10:56;28.63;;;16.52;;
51754;SDS011;37829;50.370;30.428;2022-12-10T07:11:57;27.13;;;16.77;;
51754;SDS011;37829;50.370;30.428;2022-12-10T07:12:58;29.88;;;16.90;;
51754;SDS011;37829;50.370;30.428;2022-12-10T07:13:59;22.60;;;12.00;;
51754;SDS011;37829;50.370;30.428;2022-12-10T07:15:00;27.52;;;15.65;;
51754;SDS011;37829;50.370;30.428;2022-12-10T07:16:01;30.07;;;16.27;;
51754;SDS011;37829;50.370;30.428;2022-12-10T07:17:03;25.30;;;16.02;;
51754;SDS011;37829;50.370;30.428;2022-12-10T07:18:05;30.95;;;16.48;;
51754;SDS011;37829;50.370;30.428;2022-12-10T07:19:08;30.17;;;15.98;;
51754;SDS011;37829;50.370;30.428;2022-12-10T07:20:09;27.33;;;17.48;;
51754;SDS011;37829;50.370;30.428;2022-12-10T07:21:13;34.28;;;18.00;;
51754;SDS011;37829;50.370;30.428;2022-12-10T07:22:14;32.55;;;17.67;;
51754;SDS011;37829;50.370;30.428;2022-12-10T07:23:15;31.48;;;16.35;;
51754;SDS011;37829;50.370;30.428;2022-12-10T07:24:17;40.20;;;24.73;;
51754;SDS011;37829;50.370;30.428;2022-12-10T07:25:18;126.82;;;60.13;;
51754;SDS011;37829;50.370;30.428;2022-12-10T07:26:19;89.20;;;45.23;;
51754;SDS011;37829;50.370;30.428;2022-12-10T07:27:20;54.33;;;30.08;;
51754;SDS011;37829;50.370;30.428;2022-12-10T07:28:21;58.38;;;32.40;;
51754;SDS011;37829;50.370;30.428;2022-12-10T07:29:22;33.60;;;20.38;;
51754;SDS011;37829;50.370;30.428;2022-12-10T07:30:23;62.33;;;38.33;;
51754;SDS011;37829;50.370;30.428;2022-12-10T07:31:24;55.67;;;33.08;;
51754;SDS011;37829;50.370;30.428;2022-12-10T07:32:27;46.47;;;28.70;;
51754;SDS011;37829;50.370;30.428;2022-12-10T07:33:28;38.60;;;25.00;;
51754;SDS011;37829;50.370;30.428;2022-12-10T07:34:29;50.37;;;32.47;;
51754;SDS011;37829;50.370;30.428;2022-12-10T07:35:30;39.33;;;24.70;;
51754;SDS011;37829;50.370;30.428;2022-12-10T07:36:31;63.28;;;41.47;;
51754;SDS011;37829;50.370;30.428;2022-12-10T07:37:32;37.47;;;22.65;;
51754;SDS011;37829;50.370;30.428;2022-12-10T07:38:33;37.58;;;24.85;;
51754;SDS011;37829;50.370;30.428;2022-12-10T07:39:35;38.03;;;23.35;;
51754;SDS011;37829;50.370;30.428;2022-12-10T07:40:35;39.60;;;27.27;;
51754;SDS011;37829;50.370;30.428;2022-12-10T07:41:37;44.00;;;30.17;;
51754;SDS011;37829;50.370;30.428;2022-12-10T07:42:37;39.33;;;25.48;;
51754;SDS011;37829;50.370;30.428;2022-12-10T07:43:40;34.05;;;18.67;;
51754;SDS011;37829;50.370;30.428;2022-12-10T07:44:41;33.75;;;19.02;;
51754;SDS011;37829;50.370;30.428;2022-12-10T07:45:49;25.83;;;13.27;;
51754;SDS011;37829;50.370;30.428;2022-12-10T07:46:50;45.97;;;29.13;;
51754;SDS011;37829;50.370;30.428;2022-12-10T07:47:52;35.75;;;22.20;;
51754;SDS011;37829;50.370;30.428;2022-12-10T07:48:53;36.78;;;22.63;;
51754;SDS011;37829;50.370;30.428;2022-12-10T07:49:54;38.83;;;23.88;;
51754;SDS011;37829;50.370;30.428;2022-12-10T07:50:56;36.70;;;18.77;;
51754;SDS011;37829;50.370;30.428;2022-12-10T07:51:59;35.65;;;20.92;;
51754;SDS011;37829;50.370;30.428;2022-12-10T07:53:00;31.05;;;18.23;;
51754;SDS011;37829;50.370;30.428;2022-12-10T07:54:01;30.50;;;17.43;;
51754;SDS011;37829;50.370;30.428;2022-12-10T07:55:02;37.75;;;21.73;;
51754;SDS011;37829;50.370;30.428;2022-12-10T07:56:03;34.53;;;20.30;;
51754;SDS011;37829;50.370;30.428;2022-12-10T07:57:05;28.70;;;18.02;;
51754;SDS011;37829;50.370;30.428;2022-12-10T07:58:06;33.30;;;18.77;;
51754;SDS011;37829;50.370;30.428;2022-12-10T07:59:07;33.70;;;19.20;;
51754;SDS011;37829;50.370;30.428;2022-12-10T08:00:08;31.45;;;18.13;;
51754;SDS011;37829;50.370;30.428;2022-12-10T08:01:11;31.70;;;18.45;;
51754;SDS011;37829;50.370;30.428;2022-12-10T08:02:12;39.60;;;22.27;;
51754;SDS011;37829;50.370;30.428;2022-12-10T08:03:14;30.00;;;20.15;;
51754;SDS011;37829;50.370;30.428;2022-12-10T08:04:15;35.42;;;20.48;;
51754;SDS011;37829;50.370;30.428;2022-12-10T08:05:16;30.52;;;18.15;;
51754;SDS011;37829;50.370;30.428;2022-12-10T08:06:19;30.55;;;17.92;;
51754;SDS011;37829;50.370;30.428;2022-12-10T08:07:20;32.70;;;18.98;;
51754;SDS011;37829;50.370;30.428;2022-12-10T08:08:21;34.80;;;20.38;;
51754;SDS011;37829;50.370;30.428;2022-12-10T08:09:22;33.83;;;21.08;;
51754;SDS011;37829;50.370;30.428;2022-12-10T08:10:23;39.13;;;20.23;;
51754;SDS011;37829;50.370;30.428;2022-12-10T08:11:24;39.92;;;20.98;;
51754;SDS011;37829;50.370;30.428;2022-12-10T08:12:27;34.05;;;20.17;;
51754;SDS011;37829;50.370;30.428;2022-12-10T08:13:28;40.78;;;21.60;;
51754;SDS011;37829;50.370;30.428;2022-12-10T08:14:29;36.67;;;19.83;;
51754;SDS011;37829;50.370;30.428;2022-12-10T08:15:31;39.60;;;20.63;;
51754;SDS011;37829;50.370;30.428;2022-12-10T08:16:32;31.90;;;18.92;;
51754;SDS011;37829;50.370;30.428;2022-12-10T08:17:34;40.92;;;20.45;;
51754;SDS011;37829;50.370;30.428;2022-12-10T08:18:36;38.15;;;22.52;;
51754;SDS011;37829;50.370;30.428;2022-12-10T08:19:37;34.42;;;20.85;;
51754;SDS011;37829;50.370;30.428;2022-12-10T08:20:39;44.53;;;27.17;;
51754;SDS011;37829;50.370;30.428;2022-12-10T08:21:39;39.10;;;21.10;;
51754;SDS011;37829;50.370;30.428;2022-12-10T08:22:41;40.65;;;22.63;;
51754;SDS011;37829;50.370;30.428;2022-12-10T08:23:42;39.65;;;21.52;;
51754;SDS011;37829;50.370;30.428;2022-12-10T08:24:43;33.88;;;21.17;;
51754;SDS011;37829;50.370;30.428;2022-12-10T08:25:44;40.35;;;20.80;;
51754;SDS011;37829;50.370;30.428;2022-12-10T08:26:45;37.72;;;19.33;;
51754;SDS011;37829;50.370;30.428;2022-12-10T08:27:47;40.83;;;20.95;;
51754;SDS011;37829;50.370;30.428;2022-12-10T08:28:48;33.28;;;18.67;;
51754;SDS011;37829;50.370;30.428;2022-12-10T08:29:49;37.40;;;21.75;;
51754;SDS011;37829;50.370;30.428;2022-12-10T08:30:50;44.13;;;25.48;;
51754;SDS011;37829;50.370;30.428;2022-12-10T08:31:51;36.80;;;20.23;;
51754;SDS011;37829;50.370;30.428;2022-12-10T08:32:52;39.17;;;20.33;;
51754;SDS011;37829;50.370;30.428;2022-12-10T08:33:54;37.25;;;20.65;;
51754;SDS011;37829;50.370;30.428;2022-12-10T08:34:55;49.22;;;21.10;;
51754;SDS011;37829;50.370;30.428;2022-12-10T08:35:57;35.97;;;19.88;;
51754;SDS011;37829;50.370;30.428;2022-12-10T08:36:57;39.17;;;20.67;;
51754;SDS011;37829;50.370;30.428;2022-12-10T08:37:59;34.55;;;17.88;;
51754;SDS011;37829;50.370;30.428;2022-12-10T08:38:59;34.25;;;18.80;;
51754;SDS011;37829;50.370;30.428;2022-12-10T08:40:01;40.97;;;19.40;;
51754;SDS011;37829;50.370;30.428;2022-12-10T08:41:05;55.05;;;26.75;;
51754;SDS011;37829;50.370;30.428;2022-12-10T08:42:06;46.15;;;22.42;;
51754;SDS011;37829;50.370;30.428;2022-12-10T08:43:07;39.03;;;16.67;;
51754;SDS011;37829;50.370;30.428;2022-12-10T08:44:08;83.18;;;37.30;;
51754;SDS011;37829;50.370;30.428;2022-12-10T08:45:10;77.25;;;34.97;;
51754;SDS011;37829;50.370;30.428;2022-12-10T08:46:11;106.63;;;45.55;;
51754;SDS011;37829;50.370;30.428;2022-12-10T08:48:14;86.03;;;37.35;;
51754;SDS011;37829;50.370;30.428;2022-12-10T08:49:15;118.28;;;52.60;;
51754;SDS011;37829;50.370;30.428;2022-12-10T08:50:17;138.18;;;57.95;;
51754;SDS011;37829;50.370;30.428;2022-12-10T08:51:18;132.83;;;55.20;;
51754;SDS011;37829;50.370;30.428;2022-12-10T08:52:20;82.28;;;34.47;;
51754;SDS011;37829;50.370;30.428;2022-12-10T08:53:20;66.30;;;31.80;;
51754;SDS011;37829;50.370;30.428;2022-12-10T08:54:21;72.18;;;33.55;;
51754;SDS011;37829;50.370;30.428;2022-12-10T08:55:23;127.15;;;49.45;;
51754;SDS011;37829;50.370;30.428;2022-12-10T08:56:24;61.57;;;29.33;;
51754;SDS011;37829;50.370;30.428;2022-12-10T08:57:25;49.72;;;24.60;;
51754;SDS011;37829;50.370;30.428;2022-12-10T08:58:26;78.53;;;36.65;;
51754;SDS011;37829;50.370;30.428;2022-12-10T08:59:27;81.10;;;39.55;;
51754;SDS011;37829;50.370;30.428;2022-12-10T09:00:28;77.78;;;38.15;;
51754;SDS011;37829;50.370;30.428;2022-12-10T09:01:29;64.38;;;33.42;;
51754;SDS011;37829;50.370;30.428;2022-12-10T09:02:30;67.93;;;32.17;;
51754;SDS011;37829;50.370;30.428;2022-12-10T09:03:31;74.07;;;37.40;;
51754;SDS011;37829;50.370;30.428;2022-12-10T09:04:33;41.85;;;21.95;;
51754;SDS011;37829;50.370;30.428;2022-12-10T09:05:34;48.90;;;27.85;;